sensor_id;sensor_type;location;lat;lon;timestamp;temperature;humidity
59469;DHT22;45277;52.768;18.262;2023-05-16T00:01:18;11.70;99.90
59469;DHT22;45277;52.768;18.262;2023-05-16T00:02:50;11.70;99.90
59469;DHT22;45277;52.768;18.262;2023-05-16T00:04:22;11.60;99.90
59469;DHT22;45277;52.768;18.262;2023-05-16T00:05:53;11.60;99.90
59469;DHT22;45277;52.768;18.262;2023-05-16T00:07:26;11.50;99.90
59469;DHT22;45277;52.768;18.262;2023-05-16T00:08:58;11.50;99.90
59469;DHT22;45277;52.768;18.262;2023-05-16T00:10:29;11.40;99.90
59469;DHT22;45277;52.768;18.262;2023-05-16T00:12:01;11.40;99.90
59469;DHT22;45277;52.768;18.262;2023-05-16T00:13:33;11.40;99.90
59469;DHT22;45277;52.768;18.262;2023-05-16T00:15:05;11.30;99.90
59469;DHT22;45277;52.768;18.262;2023-05-16T00:16:39;11.30;99.90
59469;DHT22;45277;52.768;18.262;2023-05-16T00:18:11;11.30;99.90
59469;DHT22;45277;52.768;18.262;2023-05-16T00:19:46;11.30;99.90
59469;DHT22;45277;52.768;18.262;2023-05-16T00:21:19;11.30;99.90
59469;DHT22;45277;52.768;18.262;2023-05-16T00:22:50;11.30;99.90
59469;DHT22;45277;52.768;18.262;2023-05-16T00:24:22;11.30;99.90
59469;DHT22;45277;52.768;18.262;2023-05-16T00:25:53;11.30;99.90
59469;DHT22;45277;52.768;18.262;2023-05-16T00:27:25;11.30;99.90
59469;DHT22;45277;52.768;18.262;2023-05-16T00:28:56;11.30;99.90
59469;DHT22;45277;52.768;18.262;2023-05-16T00:30:28;11.20;99.90
59469;DHT22;45277;52.768;18.262;2023-05-16T00:31:59;11.20;99.90
59469;DHT22;45277;52.768;18.262;2023-05-16T00:33:31;11.20;99.90
59469;DHT22;45277;52.768;18.262;2023-05-16T00:35:03;11.10;99.90
59469;DHT22;45277;52.768;18.262;2023-05-16T00:36:34;11.10;99.90
59469;DHT22;45277;52.768;18.262;2023-05-16T00:38:06;11.10;99.90
59469;DHT22;45277;52.768;18.262;2023-05-16T00:39:38;11.10;99.90
59469;DHT22;45277;52.768;18.262;2023-05-16T00:41:09;11.10;99.90
59469;DHT22;45277;52.768;18.262;2023-05-16T00:42:40;11.20;99.90
59469;DHT22;45277;52.768;18.262;2023-05-16T00:44:12;11.20;99.90
59469;DHT22;45277;52.768;18.262;2023-05-16T00:45:44;11.10;99.90
59469;DHT22;45277;52.768;18.262;2023-05-16T00:47:15;11.20;99.90
59469;DHT22;45277;52.768;18.262;2023-05-16T00:48:47;11.10;99.90
59469;DHT22;45277;52.768;18.262;2023-05-16T00:50:19;11.20;99.90
59469;DHT22;45277;52.768;18.262;2023-05-16T00:51:50;11.20;99.90
59469;DHT22;45277;52.768;18.262;2023-05-16T00:53:23;11.20;99.90
59469;DHT22;45277;52.768;18.262;2023-05-16T00:54:56;11.20;99.90
59469;DHT22;45277;52.768;18.262;2023-05-16T00:56:27;11.30;99.90
59469;DHT22;45277;52.768;18.262;2023-05-16T00:57:59;11.30;99.90
59469;DHT22;45277;52.768;18.262;2023-05-16T00:59:30;11.30;99.90
59469;DHT22;45277;52.768;18.262;2023-05-16T01:03:44;11.40;99.90
59469;DHT22;45277;52.768;18.262;2023-05-16T01:05:18;11.40;99.90
59469;DHT22;45277;52.768;18.262;2023-05-16T01:06:49;11.40;99.90
59469;DHT22;45277;52.768;18.262;2023-05-16T01:08:20;11.50;99.90
59469;DHT22;45277;52.768;18.262;2023-05-16T01:09:52;11.50;99.90
59469;DHT22;45277;52.768;18.262;2023-05-16T01:11:42;11.50;99.90
59469;DHT22;45277;52.768;18.262;2023-05-16T01:15:19;11.40;99.90
59469;DHT22;45277;52.768;18.262;2023-05-16T01:16:58;11.40;99.90
59469;DHT22;45277;52.768;18.262;2023-05-16T01:22:01;11.40;99.90
59469;DHT22;45277;52.768;18.262;2023-05-16T01:23:50;11.40;99.90
59469;DHT22;45277;52.768;18.262;2023-05-16T01:27:11;11.30;99.90
59469;DHT22;45277;52.768;18.262;2023-05-16T01:28:45;11.30;99.90
59469;DHT22;45277;52.768;18.262;2023-05-16T01:30:18;11.30;99.90
59469;DHT22;45277;52.768;18.262;2023-05-16T01:31:49;11.40;99.90
59469;DHT22;45277;52.768;18.262;2023-05-16T01:33:21;11.40;99.90
59469;DHT22;45277;52.768;18.262;2023-05-16T01:34:53;11.40;99.90
59469;DHT22;45277;52.768;18.262;2023-05-16T01:38:29;11.50;99.90
59469;DHT22;45277;52.768;18.262;2023-05-16T01:40:44;11.60;99.90
59469;DHT22;45277;52.768;18.262;2023-05-16T01:42:18;11.60;99.90
59469;DHT22;45277;52.768;18.262;2023-05-16T01:43:58;11.70;99.90
59469;DHT22;45277;52.768;18.262;2023-05-16T01:45:31;11.70;99.90
59469;DHT22;45277;52.768;18.262;2023-05-16T01:47:10;11.70;99.90
59469;DHT22;45277;52.768;18.262;2023-05-16T01:50:54;11.80;99.90
59469;DHT22;45277;52.768;18.262;2023-05-16T01:52:33;11.80;99.90
59469;DHT22;45277;52.768;18.262;2023-05-16T01:54:11;11.80;99.90
59469;DHT22;45277;52.768;18.262;2023-05-16T01:55:48;11.80;99.90
59469;DHT22;45277;52.768;18.262;2023-05-16T01:57:24;11.90;99.90
59469;DHT22;45277;52.768;18.262;2023-05-16T01:58:57;11.90;99.90
59469;DHT22;45277;52.768;18.262;2023-05-16T02:00:30;11.90;99.90
59469;DHT22;45277;52.768;18.262;2023-05-16T02:02:02;11.90;99.90
59469;DHT22;45277;52.768;18.262;2023-05-16T02:03:34;11.90;99.90
59469;DHT22;45277;52.768;18.262;2023-05-16T02:05:05;11.90;99.90
59469;DHT22;45277;52.768;18.262;2023-05-16T02:06:37;11.90;99.90
59469;DHT22;45277;52.768;18.262;2023-05-16T02:08:08;11.90;99.90
59469;DHT22;45277;52.768;18.262;2023-05-16T02:09:40;11.90;99.90
59469;DHT22;45277;52.768;18.262;2023-05-16T02:11:11;11.90;99.90
59469;DHT22;45277;52.768;18.262;2023-05-16T02:12:43;11.80;99.90
59469;DHT22;45277;52.768;18.262;2023-05-16T02:14:14;11.90;99.90
59469;DHT22;45277;52.768;18.262;2023-05-16T02:15:46;11.80;99.90
59469;DHT22;45277;52.768;18.262;2023-05-16T02:17:17;11.80;99.90
59469;DHT22;45277;52.768;18.262;2023-05-16T02:18:50;11.80;99.90
59469;DHT22;45277;52.768;18.262;2023-05-16T02:20:21;11.80;99.90
59469;DHT22;45277;52.768;18.262;2023-05-16T02:21:53;11.80;99.90
59469;DHT22;45277;52.768;18.262;2023-05-16T02:23:24;11.80;99.90
59469;DHT22;45277;52.768;18.262;2023-05-16T02:24:56;11.80;99.90
59469;DHT22;45277;52.768;18.262;2023-05-16T02:26:27;11.80;99.90
59469;DHT22;45277;52.768;18.262;2023-05-16T02:27:58;11.80;99.90
59469;DHT22;45277;52.768;18.262;2023-05-16T02:29:30;11.80;99.90
59469;DHT22;45277;52.768;18.262;2023-05-16T02:31:01;11.80;99.90
59469;DHT22;45277;52.768;18.262;2023-05-16T02:32:33;11.80;99.90
59469;DHT22;45277;52.768;18.262;2023-05-16T02:34:04;11.80;99.90
59469;DHT22;45277;52.768;18.262;2023-05-16T02:35:36;11.80;99.90
59469;DHT22;45277;52.768;18.262;2023-05-16T02:37:07;11.80;99.90
59469;DHT22;45277;52.768;18.262;2023-05-16T02:38:38;11.80;99.90
59469;DHT22;45277;52.768;18.262;2023-05-16T02:40:10;11.80;99.90
59469;DHT22;45277;52.768;18.262;2023-05-16T02:41:42;11.80;99.90
59469;DHT22;45277;52.768;18.262;2023-05-16T02:43:14;11.80;99.90
59469;DHT22;45277;52.768;18.262;2023-05-16T02:44:45;11.70;99.90
59469;DHT22;45277;52.768;18.262;2023-05-16T02:46:24;11.70;99.90
59469;DHT22;45277;52.768;18.262;2023-05-16T02:47:56;11.70;99.90
59469;DHT22;45277;52.768;18.262;2023-05-16T02:49:27;11.70;99.90
59469;DHT22;45277;52.768;18.262;2023-05-16T02:50:59;11.70;99.90
59469;DHT22;45277;52.768;18.262;2023-05-16T02:52:30;11.70;99.90
59469;DHT22;45277;52.768;18.262;2023-05-16T02:54:02;11.70;99.90
59469;DHT22;45277;52.768;18.262;2023-05-16T02:55:33;11.70;99.90
59469;DHT22;45277;52.768;18.262;2023-05-16T02:57:08;11.70;99.90
59469;DHT22;45277;52.768;18.262;2023-05-16T02:58:39;11.70;99.90
59469;DHT22;45277;52.768;18.262;2023-05-16T03:00:12;11.70;99.90
59469;DHT22;45277;52.768;18.262;2023-05-16T03:01:44;11.70;99.90
59469;DHT22;45277;52.768;18.262;2023-05-16T03:03:16;11.70;99.90
59469;DHT22;45277;52.768;18.262;2023-05-16T03:04:48;11.70;99.90
59469;DHT22;45277;52.768;18.262;2023-05-16T03:06:19;11.70;99.90
59469;DHT22;45277;52.768;18.262;2023-05-16T03:07:50;11.70;99.90
59469;DHT22;45277;52.768;18.262;2023-05-16T03:09:22;11.70;99.90
59469;DHT22;45277;52.768;18.262;2023-05-16T03:10:54;11.70;99.90
59469;DHT22;45277;52.768;18.262;2023-05-16T03:12:25;11.70;99.90
59469;DHT22;45277;52.768;18.262;2023-05-16T03:13:57;11.70;99.90
59469;DHT22;45277;52.768;18.262;2023-05-16T03:15:29;11.70;99.90
59469;DHT22;45277;52.768;18.262;2023-05-16T03:17:01;11.70;99.90
59469;DHT22;45277;52.768;18.262;2023-05-16T03:18:33;11.70;99.90
59469;DHT22;45277;52.768;18.262;2023-05-16T03:20:04;11.60;99.90
59469;DHT22;45277;52.768;18.262;2023-05-16T03:21:39;11.70;99.90
59469;DHT22;45277;52.768;18.262;2023-05-16T03:23:11;11.70;99.90
59469;DHT22;45277;52.768;18.262;2023-05-16T03:24:43;11.70;99.90
59469;DHT22;45277;52.768;18.262;2023-05-16T03:26:14;11.60;99.90
59469;DHT22;45277;52.768;18.262;2023-05-16T03:27:46;11.60;99.90
59469;DHT22;45277;52.768;18.262;2023-05-16T03:29:18;11.60;99.90
59469;DHT22;45277;52.768;18.262;2023-05-16T03:30:49;11.70;99.90
59469;DHT22;45277;52.768;18.262;2023-05-16T03:32:22;11.70;99.90
59469;DHT22;45277;52.768;18.262;2023-05-16T03:33:54;11.70;99.90
59469;DHT22;45277;52.768;18.262;2023-05-16T03:35:26;11.70;99.90
59469;DHT22;45277;52.768;18.262;2023-05-16T03:36:58;11.70;99.90
59469;DHT22;45277;52.768;18.262;2023-05-16T03:38:30;11.70;99.90
59469;DHT22;45277;52.768;18.262;2023-05-16T03:40:02;11.70;99.90
59469;DHT22;45277;52.768;18.262;2023-05-16T03:41:36;11.70;99.90
59469;DHT22;45277;52.768;18.262;2023-05-16T03:43:07;11.60;99.90
59469;DHT22;45277;52.768;18.262;2023-05-16T03:44:39;11.70;99.90
59469;DHT22;45277;52.768;18.262;2023-05-16T03:46:10;11.60;99.90
59469;DHT22;45277;52.768;18.262;2023-05-16T03:47:42;11.60;99.90
59469;DHT22;45277;52.768;18.262;2023-05-16T03:49:13;11.60;99.90
59469;DHT22;45277;52.768;18.262;2023-05-16T03:50:45;11.60;99.90
59469;DHT22;45277;52.768;18.262;2023-05-16T03:52:16;11.60;99.90
59469;DHT22;45277;52.768;18.262;2023-05-16T03:53:48;11.70;99.90
59469;DHT22;45277;52.768;18.262;2023-05-16T03:55:20;11.70;99.90
59469;DHT22;45277;52.768;18.262;2023-05-16T03:56:51;11.70;99.90
59469;DHT22;45277;52.768;18.262;2023-05-16T03:58:22;11.70;99.90
59469;DHT22;45277;52.768;18.262;2023-05-16T03:59:54;11.70;99.90
59469;DHT22;45277;52.768;18.262;2023-05-16T04:01:25;11.70;99.90
59469;DHT22;45277;52.768;18.262;2023-05-16T04:02:57;11.80;99.90
59469;DHT22;45277;52.768;18.262;2023-05-16T04:04:29;11.80;99.90
59469;DHT22;45277;52.768;18.262;2023-05-16T04:06:01;11.80;99.90
59469;DHT22;45277;52.768;18.262;2023-05-16T04:07:32;11.80;99.90
59469;DHT22;45277;52.768;18.262;2023-05-16T04:09:04;11.80;99.90
59469;DHT22;45277;52.768;18.262;2023-05-16T04:10:36;11.80;99.90
59469;DHT22;45277;52.768;18.262;2023-05-16T04:12:07;11.80;99.90
59469;DHT22;45277;52.768;18.262;2023-05-16T04:13:39;11.80;99.90
59469;DHT22;45277;52.768;18.262;2023-05-16T04:15:11;11.90;99.90
59469;DHT22;45277;52.768;18.262;2023-05-16T04:16:42;11.80;99.90
59469;DHT22;45277;52.768;18.262;2023-05-16T04:18:14;11.80;99.90
59469;DHT22;45277;52.768;18.262;2023-05-16T04:19:45;11.80;99.90
59469;DHT22;45277;52.768;18.262;2023-05-16T04:21:16;11.80;99.90
59469;DHT22;45277;52.768;18.262;2023-05-16T04:22:48;11.80;99.90
59469;DHT22;45277;52.768;18.262;2023-05-16T04:24:19;11.90;99.90
59469;DHT22;45277;52.768;18.262;2023-05-16T04:25:51;11.90;99.90
59469;DHT22;45277;52.768;18.262;2023-05-16T04:27:23;11.90;99.90
59469;DHT22;45277;52.768;18.262;2023-05-16T04:28:54;11.90;99.90
59469;DHT22;45277;52.768;18.262;2023-05-16T04:30:26;11.90;99.90
59469;DHT22;45277;52.768;18.262;2023-05-16T04:31:58;11.90;99.90
59469;DHT22;45277;52.768;18.262;2023-05-16T04:33:30;11.90;99.90
59469;DHT22;45277;52.768;18.262;2023-05-16T04:35:02;11.90;99.90
59469;DHT22;45277;52.768;18.262;2023-05-16T04:36:34;12.00;99.90
59469;DHT22;45277;52.768;18.262;2023-05-16T04:38:05;11.90;99.90
59469;DHT22;45277;52.768;18.262;2023-05-16T04:39:37;11.90;99.90
59469;DHT22;45277;52.768;18.262;2023-05-16T04:41:08;11.90;99.90
59469;DHT22;45277;52.768;18.262;2023-05-16T04:42:40;11.90;99.90
59469;DHT22;45277;52.768;18.262;2023-05-16T04:44:11;12.00;99.90
59469;DHT22;45277;52.768;18.262;2023-05-16T04:45:43;12.00;99.90
59469;DHT22;45277;52.768;18.262;2023-05-16T04:47:15;12.10;99.90
59469;DHT22;45277;52.768;18.262;2023-05-16T04:48:46;12.10;99.90
59469;DHT22;45277;52.768;18.262;2023-05-16T04:50:18;12.10;99.90
59469;DHT22;45277;52.768;18.262;2023-05-16T04:51:49;12.10;99.90
59469;DHT22;45277;52.768;18.262;2023-05-16T04:53:21;12.10;99.90
59469;DHT22;45277;52.768;18.262;2023-05-16T04:54:53;12.10;99.90
59469;DHT22;45277;52.768;18.262;2023-05-16T04:56:24;12.20;99.90
59469;DHT22;45277;52.768;18.262;2023-05-16T04:57:57;12.30;99.90
59469;DHT22;45277;52.768;18.262;2023-05-16T04:59:28;12.30;99.90
59469;DHT22;45277;52.768;18.262;2023-05-16T05:01:00;12.40;99.90
59469;DHT22;45277;52.768;18.262;2023-05-16T05:02:31;12.40;99.90
59469;DHT22;45277;52.768;18.262;2023-05-16T05:04:03;12.50;99.90
59469;DHT22;45277;52.768;18.262;2023-05-16T05:05:34;12.70;99.90
59469;DHT22;45277;52.768;18.262;2023-05-16T05:07:06;12.80;99.90
59469;DHT22;45277;52.768;18.262;2023-05-16T05:08:38;12.90;99.90
59469;DHT22;45277;52.768;18.262;2023-05-16T05:10:10;12.90;99.90
59469;DHT22;45277;52.768;18.262;2023-05-16T05:11:41;13.00;99.90
59469;DHT22;45277;52.768;18.262;2023-05-16T05:13:13;13.00;99.90
59469;DHT22;45277;52.768;18.262;2023-05-16T05:14:44;13.10;99.90
59469;DHT22;45277;52.768;18.262;2023-05-16T05:16:16;13.10;99.90
59469;DHT22;45277;52.768;18.262;2023-05-16T05:17:47;13.10;99.90
59469;DHT22;45277;52.768;18.262;2023-05-16T05:19:19;13.10;99.90
59469;DHT22;45277;52.768;18.262;2023-05-16T05:20:50;13.10;99.90
59469;DHT22;45277;52.768;18.262;2023-05-16T05:22:23;13.10;99.90
59469;DHT22;45277;52.768;18.262;2023-05-16T05:23:54;13.20;99.90
59469;DHT22;45277;52.768;18.262;2023-05-16T05:25:25;13.30;99.90
59469;DHT22;45277;52.768;18.262;2023-05-16T05:26:57;13.30;99.90
59469;DHT22;45277;52.768;18.262;2023-05-16T05:28:28;13.30;99.90
59469;DHT22;45277;52.768;18.262;2023-05-16T05:30:00;13.30;99.90
59469;DHT22;45277;52.768;18.262;2023-05-16T05:31:32;13.20;99.90
59469;DHT22;45277;52.768;18.262;2023-05-16T05:33:04;13.20;99.90
59469;DHT22;45277;52.768;18.262;2023-05-16T05:34:36;13.20;99.90
59469;DHT22;45277;52.768;18.262;2023-05-16T05:36:07;13.20;99.90
59469;DHT22;45277;52.768;18.262;2023-05-16T05:37:39;13.20;99.90
59469;DHT22;45277;52.768;18.262;2023-05-16T05:39:10;13.30;99.90
59469;DHT22;45277;52.768;18.262;2023-05-16T05:40:42;13.30;99.90
59469;DHT22;45277;52.768;18.262;2023-05-16T05:42:13;13.30;99.90
59469;DHT22;45277;52.768;18.262;2023-05-16T05:43:44;13.30;99.90
59469;DHT22;45277;52.768;18.262;2023-05-16T05:45:16;13.10;99.90
59469;DHT22;45277;52.768;18.262;2023-05-16T05:46:48;13.00;99.90
59469;DHT22;45277;52.768;18.262;2023-05-16T05:48:19;13.00;99.90
59469;DHT22;45277;52.768;18.262;2023-05-16T05:49:51;13.00;99.90
59469;DHT22;45277;52.768;18.262;2023-05-16T05:51:23;13.00;99.90
59469;DHT22;45277;52.768;18.262;2023-05-16T05:52:54;13.10;99.90
59469;DHT22;45277;52.768;18.262;2023-05-16T05:54:26;13.10;99.90
59469;DHT22;45277;52.768;18.262;2023-05-16T05:55:58;13.10;99.90
59469;DHT22;45277;52.768;18.262;2023-05-16T05:57:29;13.20;99.90
59469;DHT22;45277;52.768;18.262;2023-05-16T05:59:01;13.30;99.90
59469;DHT22;45277;52.768;18.262;2023-05-16T06:00:32;13.30;99.90
59469;DHT22;45277;52.768;18.262;2023-05-16T06:02:04;13.40;99.90
59469;DHT22;45277;52.768;18.262;2023-05-16T06:03:36;13.40;99.90
59469;DHT22;45277;52.768;18.262;2023-05-16T06:05:08;13.50;99.90
59469;DHT22;45277;52.768;18.262;2023-05-16T06:06:39;13.50;99.90
59469;DHT22;45277;52.768;18.262;2023-05-16T06:08:11;13.50;99.90
59469;DHT22;45277;52.768;18.262;2023-05-16T06:09:42;13.60;99.90
59469;DHT22;45277;52.768;18.262;2023-05-16T06:11:13;13.70;99.90
59469;DHT22;45277;52.768;18.262;2023-05-16T06:12:45;13.70;99.90
59469;DHT22;45277;52.768;18.262;2023-05-16T06:14:17;13.60;99.90
59469;DHT22;45277;52.768;18.262;2023-05-16T06:15:52;13.70;99.90
59469;DHT22;45277;52.768;18.262;2023-05-16T06:17:24;13.70;99.90
59469;DHT22;45277;52.768;18.262;2023-05-16T06:18:56;13.70;99.90
59469;DHT22;45277;52.768;18.262;2023-05-16T06:20:27;13.70;99.90
59469;DHT22;45277;52.768;18.262;2023-05-16T06:21:59;13.60;99.90
59469;DHT22;45277;52.768;18.262;2023-05-16T06:23:31;13.60;99.90
59469;DHT22;45277;52.768;18.262;2023-05-16T06:25:04;13.60;99.90
59469;DHT22;45277;52.768;18.262;2023-05-16T06:26:37;13.70;99.90
59469;DHT22;45277;52.768;18.262;2023-05-16T06:28:08;13.80;99.90
59469;DHT22;45277;52.768;18.262;2023-05-16T06:29:40;13.80;99.90
59469;DHT22;45277;52.768;18.262;2023-05-16T06:31:11;14.00;99.90
59469;DHT22;45277;52.768;18.262;2023-05-16T06:32:43;14.00;99.90
59469;DHT22;45277;52.768;18.262;2023-05-16T06:34:14;14.10;99.90
59469;DHT22;45277;52.768;18.262;2023-05-16T06:35:46;14.10;99.90
59469;DHT22;45277;52.768;18.262;2023-05-16T06:37:18;14.30;99.90
59469;DHT22;45277;52.768;18.262;2023-05-16T06:38:50;14.40;99.90
59469;DHT22;45277;52.768;18.262;2023-05-16T06:40:22;14.40;99.90
59469;DHT22;45277;52.768;18.262;2023-05-16T06:41:53;14.50;99.90
59469;DHT22;45277;52.768;18.262;2023-05-16T06:43:25;14.50;99.90
59469;DHT22;45277;52.768;18.262;2023-05-16T06:44:57;14.60;99.90
59469;DHT22;45277;52.768;18.262;2023-05-16T06:46:28;14.70;99.90
59469;DHT22;45277;52.768;18.262;2023-05-16T06:48:00;14.70;99.90
59469;DHT22;45277;52.768;18.262;2023-05-16T06:49:32;14.80;99.90
59469;DHT22;45277;52.768;18.262;2023-05-16T06:51:04;14.90;99.90
59469;DHT22;45277;52.768;18.262;2023-05-16T06:52:35;15.00;99.90
59469;DHT22;45277;52.768;18.262;2023-05-16T06:54:07;15.10;99.90
59469;DHT22;45277;52.768;18.262;2023-05-16T06:55:39;15.10;99.90
59469;DHT22;45277;52.768;18.262;2023-05-16T06:57:10;15.20;99.90
59469;DHT22;45277;52.768;18.262;2023-05-16T06:58:43;15.40;99.90
59469;DHT22;45277;52.768;18.262;2023-05-16T07:00:15;15.40;99.90
59469;DHT22;45277;52.768;18.262;2023-05-16T07:01:47;15.20;99.90
59469;DHT22;45277;52.768;18.262;2023-05-16T07:03:19;15.10;99.90
59469;DHT22;45277;52.768;18.262;2023-05-16T07:04:51;15.00;99.90
59469;DHT22;45277;52.768;18.262;2023-05-16T07:06:22;15.00;99.90
59469;DHT22;45277;52.768;18.262;2023-05-16T07:07:54;15.00;99.90
59469;DHT22;45277;52.768;18.262;2023-05-16T07:09:26;15.00;99.90
59469;DHT22;45277;52.768;18.262;2023-05-16T07:10:58;14.90;99.90
59469;DHT22;45277;52.768;18.262;2023-05-16T07:12:29;14.90;99.90
59469;DHT22;45277;52.768;18.262;2023-05-16T07:14:01;14.90;99.90
59469;DHT22;45277;52.768;18.262;2023-05-16T07:15:33;14.90;99.90
59469;DHT22;45277;52.768;18.262;2023-05-16T07:17:05;15.00;99.90
59469;DHT22;45277;52.768;18.262;2023-05-16T07:18:37;15.00;99.90
59469;DHT22;45277;52.768;18.262;2023-05-16T07:20:09;15.00;99.90
59469;DHT22;45277;52.768;18.262;2023-05-16T07:21:44;15.10;99.90
59469;DHT22;45277;52.768;18.262;2023-05-16T07:23:15;15.10;99.90
59469;DHT22;45277;52.768;18.262;2023-05-16T07:24:47;15.20;99.90
59469;DHT22;45277;52.768;18.262;2023-05-16T07:26:19;15.20;99.90
59469;DHT22;45277;52.768;18.262;2023-05-16T07:27:53;15.20;99.90
59469;DHT22;45277;52.768;18.262;2023-05-16T07:29:25;15.30;99.90
59469;DHT22;45277;52.768;18.262;2023-05-16T07:30:57;15.50;99.90
59469;DHT22;45277;52.768;18.262;2023-05-16T07:32:29;15.60;99.90
59469;DHT22;45277;52.768;18.262;2023-05-16T07:34:00;15.90;99.90
59469;DHT22;45277;52.768;18.262;2023-05-16T07:35:32;15.90;99.90
59469;DHT22;45277;52.768;18.262;2023-05-16T07:37:04;16.00;99.90
59469;DHT22;45277;52.768;18.262;2023-05-16T07:38:37;16.00;99.90
59469;DHT22;45277;52.768;18.262;2023-05-16T07:40:10;16.10;99.90
59469;DHT22;45277;52.768;18.262;2023-05-16T07:41:41;16.20;99.90
59469;DHT22;45277;52.768;18.262;2023-05-16T07:43:13;16.40;99.90
59469;DHT22;45277;52.768;18.262;2023-05-16T07:44:44;16.40;99.90
59469;DHT22;45277;52.768;18.262;2023-05-16T07:46:16;16.40;99.90
59469;DHT22;45277;52.768;18.262;2023-05-16T07:47:47;16.30;99.90
59469;DHT22;45277;52.768;18.262;2023-05-16T07:49:19;16.30;99.90
59469;DHT22;45277;52.768;18.262;2023-05-16T07:50:51;16.10;99.90
59469;DHT22;45277;52.768;18.262;2023-05-16T07:52:22;16.00;99.90
59469;DHT22;45277;52.768;18.262;2023-05-16T07:53:54;16.00;99.90
59469;DHT22;45277;52.768;18.262;2023-05-16T07:55:26;15.90;99.90
59469;DHT22;45277;52.768;18.262;2023-05-16T07:56:57;15.80;99.90
59469;DHT22;45277;52.768;18.262;2023-05-16T07:58:29;15.90;99.90
59469;DHT22;45277;52.768;18.262;2023-05-16T08:00:00;16.20;99.90
59469;DHT22;45277;52.768;18.262;2023-05-16T08:01:32;16.20;99.90
59469;DHT22;45277;52.768;18.262;2023-05-16T08:03:04;16.10;99.90
59469;DHT22;45277;52.768;18.262;2023-05-16T08:04:36;16.00;99.90
59469;DHT22;45277;52.768;18.262;2023-05-16T08:06:08;16.10;99.90
59469;DHT22;45277;52.768;18.262;2023-05-16T08:07:39;16.10;99.90
59469;DHT22;45277;52.768;18.262;2023-05-16T08:09:11;16.10;99.90
59469;DHT22;45277;52.768;18.262;2023-05-16T08:10:42;16.20;99.90
59469;DHT22;45277;52.768;18.262;2023-05-16T08:12:14;16.20;99.90
59469;DHT22;45277;52.768;18.262;2023-05-16T08:13:45;16.10;99.90
59469;DHT22;45277;52.768;18.262;2023-05-16T08:15:16;16.20;99.90
59469;DHT22;45277;52.768;18.262;2023-05-16T08:16:48;16.30;99.90
59469;DHT22;45277;52.768;18.262;2023-05-16T08:18:20;16.50;99.90
59469;DHT22;45277;52.768;18.262;2023-05-16T08:19:52;16.70;99.90
59469;DHT22;45277;52.768;18.262;2023-05-16T08:21:24;16.60;99.90
59469;DHT22;45277;52.768;18.262;2023-05-16T08:22:56;16.60;99.90
59469;DHT22;45277;52.768;18.262;2023-05-16T08:24:28;16.60;99.90
59469;DHT22;45277;52.768;18.262;2023-05-16T08:25:59;16.60;99.90
59469;DHT22;45277;52.768;18.262;2023-05-16T08:27:31;16.60;99.90
59469;DHT22;45277;52.768;18.262;2023-05-16T08:29:03;16.50;99.90
59469;DHT22;45277;52.768;18.262;2023-05-16T08:30:35;16.60;99.90
59469;DHT22;45277;52.768;18.262;2023-05-16T08:32:08;16.50;99.90
59469;DHT22;45277;52.768;18.262;2023-05-16T08:33:41;16.30;99.90
59469;DHT22;45277;52.768;18.262;2023-05-16T08:35:12;16.10;99.90
59469;DHT22;45277;52.768;18.262;2023-05-16T08:36:44;16.20;99.90
59469;DHT22;45277;52.768;18.262;2023-05-16T08:38:15;16.30;99.90
59469;DHT22;45277;52.768;18.262;2023-05-16T08:39:47;16.40;99.90
59469;DHT22;45277;52.768;18.262;2023-05-16T08:43:28;16.60;99.90
59469;DHT22;45277;52.768;18.262;2023-05-16T08:45:00;16.60;99.90
59469;DHT22;45277;52.768;18.262;2023-05-16T08:46:32;16.30;99.90
59469;DHT22;45277;52.768;18.262;2023-05-16T08:48:06;16.30;99.90
59469;DHT22;45277;52.768;18.262;2023-05-16T08:49:40;16.30;99.90
59469;DHT22;45277;52.768;18.262;2023-05-16T08:51:13;16.40;99.90
59469;DHT22;45277;52.768;18.262;2023-05-16T08:52:51;16.60;99.90
59469;DHT22;45277;52.768;18.262;2023-05-16T08:54:23;16.80;99.90
59469;DHT22;45277;52.768;18.262;2023-05-16T08:55:55;17.10;99.90
59469;DHT22;45277;52.768;18.262;2023-05-16T08:57:29;17.30;99.90
59469;DHT22;45277;52.768;18.262;2023-05-16T08:59:04;17.10;99.50
59469;DHT22;45277;52.768;18.262;2023-05-16T09:00:37;17.00;99.90
59469;DHT22;45277;52.768;18.262;2023-05-16T09:02:10;16.80;99.90
59469;DHT22;45277;52.768;18.262;2023-05-16T09:03:43;16.80;99.90
59469;DHT22;45277;52.768;18.262;2023-05-16T09:05:16;16.80;99.90
59469;DHT22;45277;52.768;18.262;2023-05-16T09:06:48;16.80;99.90
59469;DHT22;45277;52.768;18.262;2023-05-16T09:08:20;17.00;99.90
59469;DHT22;45277;52.768;18.262;2023-05-16T09:09:51;17.10;99.90
59469;DHT22;45277;52.768;18.262;2023-05-16T09:11:23;17.20;94.10
59469;DHT22;45277;52.768;18.262;2023-05-16T09:12:56;17.40;97.30
59469;DHT22;45277;52.768;18.262;2023-05-16T09:14:27;17.60;99.90
59469;DHT22;45277;52.768;18.262;2023-05-16T09:17:45;17.70;93.00
59469;DHT22;45277;52.768;18.262;2023-05-16T09:19:17;17.70;99.90
59469;DHT22;45277;52.768;18.262;2023-05-16T09:20:50;17.80;93.50
59469;DHT22;45277;52.768;18.262;2023-05-16T09:22:23;18.00;99.90
59469;DHT22;45277;52.768;18.262;2023-05-16T09:23:55;18.30;99.90
59469;DHT22;45277;52.768;18.262;2023-05-16T09:25:28;18.60;85.20
59469;DHT22;45277;52.768;18.262;2023-05-16T09:27:07;18.80;59.40
59469;DHT22;45277;52.768;18.262;2023-05-16T09:28:39;18.60;45.50
59469;DHT22;45277;52.768;18.262;2023-05-16T09:30:13;18.40;54.50
59469;DHT22;45277;52.768;18.262;2023-05-16T09:31:48;18.10;70.60
59469;DHT22;45277;52.768;18.262;2023-05-16T09:33:22;17.90;88.50
59469;DHT22;45277;52.768;18.262;2023-05-16T09:34:54;17.80;93.00
59469;DHT22;45277;52.768;18.262;2023-05-16T09:36:31;17.70;87.20
59469;DHT22;45277;52.768;18.262;2023-05-16T09:38:02;17.60;90.00
59469;DHT22;45277;52.768;18.262;2023-05-16T09:39:34;17.60;95.40
59469;DHT22;45277;52.768;18.262;2023-05-16T09:41:08;17.70;81.50
59469;DHT22;45277;52.768;18.262;2023-05-16T09:42:41;17.90;99.90
59469;DHT22;45277;52.768;18.262;2023-05-16T09:44:14;18.10;60.50
59469;DHT22;45277;52.768;18.262;2023-05-16T09:45:48;18.30;61.90
59469;DHT22;45277;52.768;18.262;2023-05-16T09:47:20;18.50;27.80
59469;DHT22;45277;52.768;18.262;2023-05-16T09:48:52;18.80;32.40
59469;DHT22;45277;52.768;18.262;2023-05-16T09:50:25;19.10;20.90
59469;DHT22;45277;52.768;18.262;2023-05-16T09:52:02;19.30;8.10